createdAt,value
2023-02-22T00:00:01.872Z,8.20
2023-02-22T00:02:37.205Z,8.20
2023-02-22T00:05:10.510Z,8.20
2023-02-22T00:07:40.789Z,8.20
2023-02-22T00:10:13.613Z,8.20
2023-02-22T00:12:44.997Z,8.10
2023-02-22T00:15:17.170Z,8.10
2023-02-22T00:17:48.285Z,8.20
2023-02-22T00:20:23.543Z,8.20
2023-02-22T00:22:54.780Z,8.20
2023-02-22T00:25:26.920Z,8.20
2023-02-22T00:27:57.491Z,8.20
2023-02-22T00:30:29.755Z,8.20
2023-02-22T00:33:00.655Z,8.20
2023-02-22T00:35:34.541Z,8.20
2023-02-22T00:38:06.058Z,8.20
2023-02-22T00:40:38.567Z,8.20
2023-02-22T00:43:10.081Z,8.10
2023-02-22T00:45:41.015Z,8.20
2023-02-22T00:48:13.379Z,8.20
2023-02-22T00:50:48.615Z,8.20
2023-02-22T00:53:19.430Z,8.20
2023-02-22T00:55:49.754Z,8.20
2023-02-22T00:58:20.572Z,8.20
2023-02-22T01:00:51.774Z,8.20
2023-02-22T01:03:23.275Z,8.20
2023-02-22T01:05:56.438Z,8.20
2023-02-22T01:08:31.293Z,8.10
2023-02-22T01:11:01.681Z,8.10
2023-02-22T01:13:32.960Z,8.20
2023-02-22T01:16:03.536Z,8.10
2023-02-22T01:18:34.215Z,8.10
2023-02-22T01:21:08.724Z,8.00
2023-02-22T01:23:39.272Z,8.00
2023-02-22T01:26:09.623Z,7.90
2023-02-22T01:28:40.895Z,8.00
2023-02-22T01:31:11.287Z,8.00
2023-02-22T01:33:42.042Z,8.10
2023-02-22T01:36:15.104Z,8.00
2023-02-22T01:38:45.800Z,8.00
2023-02-22T01:41:18.690Z,8.00
2023-02-22T01:43:49.151Z,8.00
2023-02-22T01:46:27.547Z,8.10
2023-02-22T01:49:00.260Z,8.00
2023-02-22T01:51:37.741Z,8.00
2023-02-22T01:54:13.808Z,7.90
2023-02-22T01:56:50.664Z,7.90
2023-02-22T01:59:23.753Z,7.80
2023-02-22T02:01:54.095Z,7.90
2023-02-22T02:04:27.499Z,7.90
2023-02-22T02:07:07.135Z,7.80
2023-02-22T02:09:42.822Z,7.80
2023-02-22T02:12:14.911Z,7.80
2023-02-22T02:14:45.912Z,7.80
2023-02-22T02:17:21.755Z,7.80
2023-02-22T02:20:04.580Z,7.80
2023-02-22T02:22:49.612Z,7.70
2023-02-22T02:25:45.164Z,7.70
2023-02-22T02:28:43.060Z,7.70
2023-02-22T02:31:38.376Z,7.70
2023-02-22T02:34:20.560Z,7.80
2023-02-22T02:37:01.936Z,7.80
2023-02-22T02:39:38.049Z,7.70
2023-02-22T02:42:14.155Z,7.70
2023-02-22T02:44:52.530Z,7.70
2023-02-22T02:47:27.174Z,7.60
2023-02-22T02:50:11.568Z,7.60
2023-02-22T02:52:43.588Z,7.60
2023-02-22T02:55:16.228Z,7.60
2023-02-22T02:57:46.582Z,7.50
2023-02-22T03:00:23.588Z,7.50
2023-02-22T03:03:07.983Z,7.50
2023-02-22T03:06:02.017Z,7.40
2023-02-22T03:08:41.549Z,7.50
2023-02-22T03:11:17.996Z,7.40
2023-02-22T03:13:56.757Z,7.50
2023-02-22T03:16:35.800Z,7.40
2023-02-22T03:19:11.930Z,7.40
2023-02-22T03:21:50.622Z,7.40
2023-02-22T03:24:25.003Z,7.40
2023-02-22T03:27:03.053Z,7.40
2023-02-22T03:29:37.614Z,7.20
2023-02-22T03:32:14.731Z,7.20
2023-02-22T03:34:48.423Z,7.20
2023-02-22T03:37:25.342Z,7.30
2023-02-22T03:39:58.261Z,7.30
2023-02-22T03:42:32.823Z,7.30
2023-02-22T03:45:10.073Z,7.30
2023-02-22T03:47:46.694Z,7.20
2023-02-22T03:50:20.136Z,7.10
2023-02-22T03:52:53.166Z,7.20
2023-02-22T03:55:29.096Z,7.20
2023-02-22T03:58:02.021Z,7.20
2023-02-22T04:00:36.857Z,7.20
2023-02-22T04:03:07.912Z,7.10
2023-02-22T04:05:38.383Z,7.10
2023-02-22T04:08:11.484Z,7.10
2023-02-22T04:10:41.880Z,7.20
2023-02-22T04:13:14.810Z,7.20
2023-02-22T04:15:49.057Z,7.20
2023-02-22T04:18:19.657Z,7.10
2023-02-22T04:20:51.817Z,7.10
2023-02-22T04:23:36.574Z,7.20
2023-02-22T04:26:08.517Z,7.10
2023-02-22T04:28:38.858Z,7.20
2023-02-22T04:31:28.942Z,7.20
2023-02-22T04:34:02.616Z,7.10
2023-02-22T04:36:36.469Z,7.30
2023-02-22T04:39:09.876Z,7.20
2023-02-22T04:41:40.272Z,7.20
2023-02-22T04:44:11.640Z,7.10
2023-02-22T04:46:43.052Z,7.10
2023-02-22T04:49:16.508Z,7.10
2023-02-22T04:51:48.322Z,7.00
2023-02-22T04:54:22.888Z,7.00
2023-02-22T04:56:55.362Z,7.20
2023-02-22T04:59:26.171Z,7.10
2023-02-22T05:02:00.932Z,7.10
2023-02-22T05:04:31.295Z,7.10
2023-02-22T05:07:01.653Z,7.10
2023-02-22T05:09:34.509Z,7.10
2023-02-22T05:12:06.204Z,7.10
2023-02-22T05:14:36.500Z,7.00
2023-02-22T05:17:09.394Z,7.00
2023-02-22T05:19:40.085Z,7.00
2023-02-22T05:22:10.350Z,6.90
2023-02-22T05:24:44.056Z,7.00
2023-02-22T05:27:14.760Z,6.90
2023-02-22T05:29:45.117Z,6.90
2023-02-22T05:32:16.922Z,7.00
2023-02-22T05:34:47.281Z,6.90
2023-02-22T05:37:17.669Z,6.90
2023-02-22T05:39:51.144Z,6.90
2023-02-22T05:42:22.240Z,6.90
2023-02-22T05:44:52.544Z,6.80
2023-02-22T05:47:22.888Z,6.90
2023-02-22T05:49:53.261Z,6.90
2023-02-22T05:52:24.084Z,6.70
2023-02-22T05:54:57.153Z,6.90
2023-02-22T05:57:27.482Z,6.90
2023-02-22T05:59:57.835Z,6.90
2023-02-22T06:02:28.373Z,6.90
2023-02-22T06:04:58.688Z,7.00
2023-02-22T06:07:29.209Z,6.70
2023-02-22T06:10:02.160Z,6.80
2023-02-22T06:12:32.504Z,6.80
2023-02-22T06:15:02.865Z,6.70
2023-02-22T06:17:35.185Z,6.90
2023-02-22T06:20:05.646Z,6.80
2023-02-22T06:22:35.938Z,6.80
2023-02-22T06:25:09.988Z,6.80
2023-02-22T06:27:40.313Z,6.80
2023-02-22T06:30:13.329Z,6.80
2023-02-22T06:32:43.867Z,6.70
2023-02-22T06:35:14.279Z,6.80
2023-02-22T06:37:44.686Z,6.70
2023-02-22T06:40:18.666Z,6.80
2023-02-22T06:42:50.974Z,6.70
2023-02-22T06:45:21.951Z,6.80
2023-02-22T06:47:52.617Z,6.70
2023-02-22T06:50:25.560Z,6.70
2023-02-22T06:52:56.016Z,6.70
2023-02-22T06:55:30.656Z,6.70
2023-02-22T06:58:01.035Z,6.60
2023-02-22T07:00:33.314Z,6.60
2023-02-22T07:03:04.089Z,6.70
2023-02-22T07:05:34.412Z,6.60
2023-02-22T07:08:09.555Z,6.60
2023-02-22T07:10:43.387Z,6.60
2023-02-22T07:13:13.766Z,6.70
2023-02-22T07:15:44.116Z,6.70
2023-02-22T07:18:16.226Z,6.60
2023-02-22T07:20:46.953Z,6.70
2023-02-22T07:23:17.737Z,6.70
2023-02-22T07:25:50.662Z,6.60
2023-02-22T07:28:21.191Z,6.60
2023-02-22T07:30:51.516Z,6.60
2023-02-22T07:33:21.982Z,6.60
2023-02-22T07:35:53.900Z,6.60
2023-02-22T07:38:24.278Z,6.60
2023-02-22T07:40:58.007Z,6.60
2023-02-22T07:43:31.266Z,6.70
2023-02-22T07:46:03.900Z,6.70
2023-02-22T07:48:35.203Z,6.70
2023-02-22T07:51:06.211Z,6.70
2023-02-22T07:53:37.056Z,6.70
2023-02-22T07:56:10.379Z,6.70
2023-02-22T07:58:40.793Z,6.80
2023-02-22T08:01:11.255Z,6.80
2023-02-22T08:03:42.708Z,6.80
2023-02-22T08:06:13.097Z,6.80
2023-02-22T08:08:43.849Z,6.80
2023-02-22T08:11:17.371Z,6.90
2023-02-22T08:13:48.110Z,7.00
2023-02-22T08:16:18.468Z,7.00
2023-02-22T08:18:48.865Z,7.00
2023-02-22T08:21:20.165Z,7.10
2023-02-22T08:23:56.149Z,7.10
2023-02-22T08:26:29.115Z,7.10
2023-02-22T08:28:59.559Z,7.10
2023-02-22T08:31:30.083Z,7.20
2023-02-22T08:34:01.256Z,7.20
2023-02-22T08:36:33.205Z,7.20
2023-02-22T08:39:03.772Z,7.20
2023-02-22T08:41:36.750Z,7.30
2023-02-22T08:44:07.462Z,7.30
2023-02-22T08:46:39.150Z,7.30
2023-02-22T08:49:10.085Z,7.30
2023-02-22T08:51:40.834Z,7.40
2023-02-22T08:54:11.214Z,7.40
2023-02-22T08:56:44.227Z,7.50
2023-02-22T08:59:14.630Z,7.50
2023-02-22T09:01:45.005Z,7.60
2023-02-22T09:04:15.478Z,7.70
2023-02-22T09:06:51.904Z,7.70
2023-02-22T09:09:23.195Z,7.70
2023-02-22T09:11:56.249Z,7.80
2023-02-22T09:14:26.617Z,7.80
2023-02-22T09:16:57.021Z,7.90
2023-02-22T09:19:27.435Z,7.90
2023-02-22T09:21:58.193Z,8.00
2023-02-22T09:24:28.990Z,8.00
2023-02-22T09:27:04.588Z,8.00
2023-02-22T09:29:35.129Z,8.00
2023-02-22T09:32:06.264Z,8.10
2023-02-22T09:34:36.819Z,8.10
2023-02-22T09:37:08.975Z,8.10
2023-02-22T09:39:40.510Z,8.20
2023-02-22T09:42:19.338Z,8.20
2023-02-22T09:44:54.522Z,8.20
2023-02-22T09:47:32.723Z,8.30
2023-02-22T09:50:10.880Z,8.30
2023-02-22T09:52:46.874Z,8.30
2023-02-22T09:55:31.085Z,8.30
2023-02-22T09:58:06.514Z,8.40
2023-02-22T10:00:39.347Z,8.40
2023-02-22T10:03:23.521Z,8.40
2023-02-22T10:05:59.954Z,8.40
2023-02-22T10:08:34.530Z,8.40
2023-02-22T10:11:13.311Z,8.50
2023-02-22T10:13:54.976Z,8.40
2023-02-22T10:16:31.527Z,8.50
2023-02-22T10:19:16.680Z,8.50
2023-02-22T10:22:09.878Z,8.60
2023-02-22T10:24:50.177Z,8.70
2023-02-22T10:27:24.083Z,8.70
2023-02-22T10:30:12.698Z,8.70
2023-02-22T10:32:53.395Z,8.70
2023-02-22T10:35:26.807Z,8.80
2023-02-22T10:38:02.148Z,8.80
2023-02-22T10:40:35.479Z,8.80
2023-02-22T10:43:07.413Z,8.80
2023-02-22T10:45:40.446Z,8.90
2023-02-22T10:48:14.673Z,8.90
2023-02-22T10:50:46.598Z,9.00
2023-02-22T10:53:18.258Z,9.00
2023-02-22T10:56:10.775Z,9.00
2023-02-22T10:58:51.940Z,9.10
2023-02-22T11:01:38.360Z,9.20
2023-02-22T11:04:17.701Z,9.30
2023-02-22T11:06:50.865Z,9.40
2023-02-22T11:09:22.978Z,9.50
2023-02-22T11:12:10.065Z,9.50
2023-02-22T11:14:40.608Z,9.60
2023-02-22T11:17:19.814Z,9.60
2023-02-22T11:19:51.787Z,9.60
2023-02-22T11:22:29.502Z,9.60
2023-02-22T11:25:04.081Z,9.70
2023-02-22T11:27:41.376Z,9.80
2023-02-22T11:30:24.862Z,9.80
2023-02-22T11:33:01.590Z,9.80
2023-02-22T11:35:41.607Z,9.90
2023-02-22T11:38:24.167Z,9.90
2023-02-22T11:41:20.606Z,9.90
2023-02-22T11:43:52.663Z,9.90
2023-02-22T11:46:26.387Z,10.00
2023-02-22T11:49:06.972Z,10.00
2023-02-22T11:51:48.265Z,10.00
2023-02-22T11:54:54.536Z,10.00
2023-02-22T11:57:47.484Z,10.10
2023-02-22T12:00:27.245Z,10.10
2023-02-22T12:03:45.150Z,10.10
2023-02-22T12:06:29.692Z,10.20
2023-02-22T12:09:14.145Z,10.20
2023-02-22T12:11:55.164Z,10.30
2023-02-22T12:14:34.301Z,10.30
2023-02-22T12:17:24.213Z,10.30
2023-02-22T12:19:58.945Z,10.40
2023-02-22T12:22:36.064Z,10.40
2023-02-22T12:25:12.333Z,10.50
2023-02-22T12:27:47.124Z,10.60
2023-02-22T12:30:25.950Z,10.60
2023-02-22T12:32:59.218Z,10.60
2023-02-22T12:35:34.950Z,10.70
2023-02-22T12:38:13.265Z,10.70
2023-02-22T12:40:48.935Z,10.70
2023-02-22T12:43:26.760Z,10.80
2023-02-22T12:46:03.496Z,10.80
2023-02-22T12:48:40.723Z,10.80
2023-02-22T12:51:31.306Z,10.90
2023-02-22T12:54:14.264Z,10.90
2023-02-22T12:56:48.151Z,10.90
2023-02-22T12:59:24.735Z,11.00
2023-02-22T13:01:59.628Z,11.00
2023-02-22T13:04:32.031Z,11.00
2023-02-22T13:07:13.596Z,11.00
2023-02-22T13:10:16.956Z,11.00
2023-02-22T13:12:58.594Z,11.10
2023-02-22T13:15:35.782Z,11.10
2023-02-22T13:18:13.538Z,11.10
2023-02-22T13:20:48.195Z,11.20
2023-02-22T13:23:34.001Z,11.20
2023-02-22T13:26:14.452Z,11.20
2023-02-22T13:28:52.248Z,11.20
2023-02-22T13:31:41.141Z,11.30
2023-02-22T13:34:33.683Z,11.30
2023-02-22T13:37:18.552Z,11.30
2023-02-22T13:40:06.804Z,11.30
2023-02-22T13:42:57.225Z,11.30
2023-02-22T13:45:54.817Z,11.30
2023-02-22T13:48:37.583Z,11.40
2023-02-22T13:51:18.413Z,11.40
2023-02-22T13:53:56.150Z,11.40
2023-02-22T13:56:28.091Z,11.40
2023-02-22T13:59:02.522Z,11.40
2023-02-22T14:01:48.624Z,11.40
2023-02-22T14:04:41.189Z,11.40
2023-02-22T14:07:43.788Z,11.40
2023-02-22T14:10:41.339Z,11.40
2023-02-22T14:13:11.691Z,11.40
2023-02-22T14:16:26.592Z,11.40
2023-02-22T14:19:09.245Z,11.40
2023-02-22T14:21:39.624Z,11.40
2023-02-22T14:24:16.564Z,11.40
2023-02-22T14:26:59.212Z,11.40
2023-02-22T14:29:29.729Z,11.40
2023-02-22T14:32:06.582Z,11.40
2023-02-22T14:35:01.060Z,11.40
2023-02-22T14:37:36.540Z,11.40
2023-02-22T14:40:13.161Z,11.40
2023-02-22T14:42:48.764Z,11.50
2023-02-22T14:45:26.905Z,11.40
2023-02-22T14:48:04.326Z,11.40
2023-02-22T14:50:48.886Z,11.40
2023-02-22T14:53:28.967Z,11.40
2023-02-22T14:56:04.338Z,11.40
2023-02-22T14:58:40.950Z,11.30
2023-02-22T15:01:44.336Z,11.30
2023-02-22T15:04:25.787Z,11.30
2023-02-22T15:07:01.095Z,11.30
2023-02-22T15:09:37.779Z,11.30
2023-02-22T15:12:18.354Z,11.30
2023-02-22T15:14:49.982Z,11.30
2023-02-22T15:17:24.771Z,11.30
2023-02-22T15:19:56.876Z,11.20
2023-02-22T15:22:37.550Z,11.30
2023-02-22T15:25:11.911Z,11.30
2023-02-22T15:27:47.098Z,11.20
2023-02-22T15:30:26.770Z,11.20
2023-02-22T15:33:04.547Z,11.20
2023-02-22T15:35:35.855Z,11.20
2023-02-22T15:38:20.196Z,11.20
2023-02-22T15:41:04.118Z,11.20
2023-02-22T15:43:35.021Z,11.20
2023-02-22T15:46:07.020Z,11.20
2023-02-22T15:48:41.302Z,11.10
2023-02-22T15:51:17.410Z,11.10
2023-02-22T15:53:53.065Z,11.10
2023-02-22T15:56:30.141Z,11.10
2023-02-22T15:59:06.956Z,11.10
2023-02-22T16:01:42.673Z,11.10
2023-02-22T16:04:20.618Z,11.10
2023-02-22T16:06:51.754Z,11.00
2023-02-22T16:09:27.218Z,11.00
2023-02-22T16:12:12.533Z,11.10
2023-02-22T16:14:45.604Z,11.00
2023-02-22T16:17:32.691Z,11.00
2023-02-22T16:20:05.945Z,11.00
2023-02-22T16:22:38.012Z,11.00
2023-02-22T16:25:29.834Z,11.00
2023-02-22T16:28:03.409Z,10.90
2023-02-22T16:30:36.271Z,10.90
2023-02-22T16:33:10.216Z,10.90
2023-02-22T16:35:40.498Z,10.90
2023-02-22T16:38:17.197Z,10.80
2023-02-22T16:40:54.918Z,10.80
2023-02-22T16:43:27.712Z,10.80
2023-02-22T16:45:58.141Z,10.90
2023-02-22T16:48:30.152Z,10.90
2023-02-22T16:51:03.983Z,10.80
2023-02-22T16:53:35.692Z,10.80
2023-02-22T16:56:12.901Z,10.80
2023-02-22T16:58:44.040Z,10.70
2023-02-22T17:04:03.149Z,10.70
2023-02-22T17:06:33.442Z,10.70
2023-02-22T17:09:03.828Z,10.60
2023-02-22T17:11:37.896Z,10.60
2023-02-22T17:14:08.727Z,10.60
2023-02-22T17:16:39.092Z,10.70
2023-02-22T17:19:17.929Z,10.60
2023-02-22T17:21:48.337Z,10.60
2023-02-22T17:24:22.734Z,10.60
2023-02-22T17:26:57.591Z,10.60
2023-02-22T17:29:28.652Z,10.60
2023-02-22T17:31:59.349Z,10.60
2023-02-22T17:34:29.867Z,10.70
2023-02-22T17:37:00.241Z,10.70
2023-02-22T17:39:30.764Z,10.60
2023-02-22T17:42:03.708Z,10.60
2023-02-22T17:44:35.466Z,10.60
2023-02-22T17:47:06.317Z,10.60
2023-02-22T17:49:36.816Z,10.60
2023-02-22T17:52:07.768Z,10.60
2023-02-22T17:54:39.336Z,10.60
2023-02-22T17:57:12.266Z,10.60
2023-02-22T17:59:42.861Z,10.60
2023-02-22T18:02:13.273Z,10.70
2023-02-22T18:04:43.742Z,10.60
2023-02-22T18:07:14.507Z,10.60
2023-02-22T18:09:44.975Z,10.70
2023-02-22T18:12:17.972Z,10.60
2023-02-22T18:14:48.476Z,10.60
2023-02-22T18:17:18.872Z,10.70
2023-02-22T18:19:49.387Z,10.60
2023-02-22T18:22:20.038Z,10.60
2023-02-22T18:24:50.476Z,10.70
2023-02-22T18:27:26.024Z,10.70
2023-02-22T18:29:56.753Z,10.70
2023-02-22T18:32:30.960Z,10.70
2023-02-22T18:35:01.630Z,10.70
2023-02-22T18:37:32.029Z,10.70
2023-02-22T18:40:02.660Z,10.70
2023-02-22T18:42:35.589Z,10.70
2023-02-22T18:45:06.401Z,10.70
2023-02-22T18:47:42.444Z,10.70
2023-02-22T18:50:14.034Z,10.70
2023-02-22T18:52:47.708Z,10.60
2023-02-22T18:55:19.573Z,10.70
2023-02-22T18:57:53.595Z,10.70
2023-02-22T19:00:28.808Z,10.70
2023-02-22T19:02:59.239Z,10.70
2023-02-22T19:05:29.916Z,10.70
2023-02-22T19:08:01.070Z,10.70
2023-02-22T19:10:31.935Z,10.70
2023-02-22T19:13:09.622Z,10.70
2023-02-22T19:15:40.971Z,10.70
2023-02-22T19:18:13.081Z,10.70
2023-02-22T19:20:44.346Z,10.70
2023-02-22T19:23:14.709Z,10.70
2023-02-22T19:25:46.651Z,10.70
2023-02-22T19:28:19.948Z,10.70
2023-02-22T19:30:50.301Z,10.70
2023-02-22T19:33:20.951Z,10.70
2023-02-22T19:35:52.594Z,10.70
2023-02-22T19:38:23.318Z,10.70
2023-02-22T19:40:55.646Z,10.70
2023-02-22T19:43:28.697Z,10.70
2023-02-22T19:45:59.176Z,10.70
2023-02-22T19:48:29.499Z,10.70
2023-02-22T19:51:04.405Z,10.70
2023-02-22T19:53:34.999Z,10.70
2023-02-22T19:56:10.326Z,10.70
2023-02-22T19:58:44.801Z,10.70
2023-02-22T20:01:16.484Z,10.70
2023-02-22T20:03:47.169Z,10.70
2023-02-22T20:06:17.591Z,10.70
2023-02-22T20:08:48.185Z,10.70
2023-02-22T20:11:18.828Z,10.70
2023-02-22T20:13:52.143Z,10.70
2023-02-22T20:16:22.693Z,10.70
2023-02-22T20:18:54.686Z,10.70
2023-02-22T20:21:30.919Z,10.70
2023-02-22T20:24:01.323Z,10.70
2023-02-22T20:26:33.583Z,10.70
2023-02-22T20:29:07.805Z,10.70
2023-02-22T20:31:39.609Z,10.70
2023-02-22T20:34:11.531Z,10.70
2023-02-22T20:36:44.296Z,10.70
2023-02-22T20:39:16.441Z,10.70
2023-02-22T20:41:48.210Z,10.70
2023-02-22T20:44:22.218Z,10.70
2023-02-22T20:46:52.641Z,10.60
2023-02-22T20:49:24.124Z,10.70
2023-02-22T20:51:54.541Z,10.60
2023-02-22T20:54:24.949Z,10.60
2023-02-22T20:56:55.370Z,10.60
2023-02-22T20:59:29.205Z,10.60
2023-02-22T21:02:00.542Z,10.60
2023-02-22T21:04:33.224Z,10.60
2023-02-22T21:07:04.020Z,10.70
2023-02-22T21:09:34.604Z,10.60
2023-02-22T21:12:10.551Z,10.60
2023-02-22T21:14:44.413Z,10.70
2023-02-22T21:17:14.853Z,10.60
2023-02-22T21:19:45.408Z,10.60
2023-02-22T21:22:15.960Z,10.60
2023-02-22T21:24:47.687Z,10.60
2023-02-22T21:27:18.097Z,10.60
2023-02-22T21:29:51.844Z,10.60
2023-02-22T21:32:22.490Z,10.60
2023-02-22T21:34:54.335Z,10.60
2023-02-22T21:37:24.725Z,10.60
2023-02-22T21:39:55.209Z,10.60
2023-02-22T21:42:25.583Z,10.60
2023-02-22T21:44:58.692Z,10.60
2023-02-22T21:47:31.342Z,10.60
2023-02-22T21:50:02.036Z,10.60
2023-02-22T21:52:32.766Z,10.60
2023-02-22T21:55:03.598Z,10.60
2023-02-22T21:57:34.006Z,10.60
2023-02-22T22:00:17.336Z,10.60
2023-02-22T22:02:48.780Z,10.60
2023-02-22T22:05:31.750Z,10.60
2023-02-22T22:08:02.177Z,10.60
2023-02-22T22:10:33.338Z,10.60
2023-02-22T22:13:03.673Z,10.50
2023-02-22T22:15:37.663Z,10.60
2023-02-22T22:18:08.514Z,10.60
2023-02-22T22:20:40.386Z,10.60
2023-02-22T22:23:11.079Z,10.50
2023-02-22T22:25:41.551Z,10.60
2023-02-22T22:28:13.692Z,10.60
2023-02-22T22:30:46.864Z,10.50
2023-02-22T22:33:17.910Z,10.50
2023-02-22T22:35:48.296Z,10.50
2023-02-22T22:38:20.875Z,10.50
2023-02-22T22:40:53.137Z,10.50
2023-02-22T22:43:23.884Z,10.60
2023-02-22T22:45:56.876Z,10.50
2023-02-22T22:48:27.360Z,10.60
2023-02-22T22:51:02.707Z,10.50
2023-02-22T23:53:52.218Z,10.50
2023-02-22T23:56:32.127Z,10.50
2023-02-22T23:59:08.994Z,10.50
